sensor_id;sensor_type;location;lat;lon;timestamp;temperature;humidity
23156;DHT22;11746;50.876;4.246;2023-06-22T00:02:02;22.00;99.90
23156;DHT22;11746;50.876;4.246;2023-06-22T00:04:28;22.10;99.90
23156;DHT22;11746;50.876;4.246;2023-06-22T00:06:54;22.20;99.90
23156;DHT22;11746;50.876;4.246;2023-06-22T00:09:20;22.10;99.90
23156;DHT22;11746;50.876;4.246;2023-06-22T00:11:46;22.10;99.90
23156;DHT22;11746;50.876;4.246;2023-06-22T00:14:12;22.00;99.90
23156;DHT22;11746;50.876;4.246;2023-06-22T00:16:38;22.00;99.90
23156;DHT22;11746;50.876;4.246;2023-06-22T00:19:04;22.00;99.90
23156;DHT22;11746;50.876;4.246;2023-06-22T00:21:30;22.00;99.90
23156;DHT22;11746;50.876;4.246;2023-06-22T00:23:56;21.90;99.90
23156;DHT22;11746;50.876;4.246;2023-06-22T00:26:23;21.80;99.90
23156;DHT22;11746;50.876;4.246;2023-06-22T00:28:49;21.80;99.90
23156;DHT22;11746;50.876;4.246;2023-06-22T00:31:15;21.80;99.90
23156;DHT22;11746;50.876;4.246;2023-06-22T00:33:41;21.90;99.90
23156;DHT22;11746;50.876;4.246;2023-06-22T00:36:06;21.90;99.90
23156;DHT22;11746;50.876;4.246;2023-06-22T00:38:34;22.00;99.90
23156;DHT22;11746;50.876;4.246;2023-06-22T00:40:59;22.00;99.90
23156;DHT22;11746;50.876;4.246;2023-06-22T00:43:25;21.90;99.90
23156;DHT22;11746;50.876;4.246;2023-06-22T00:45:51;21.90;99.90
23156;DHT22;11746;50.876;4.246;2023-06-22T00:48:18;22.00;99.90
23156;DHT22;11746;50.876;4.246;2023-06-22T00:50:44;21.90;99.90
23156;DHT22;11746;50.876;4.246;2023-06-22T00:53:12;21.80;99.90
23156;DHT22;11746;50.876;4.246;2023-06-22T00:55:41;21.80;99.90
23156;DHT22;11746;50.876;4.246;2023-06-22T00:58:17;21.80;99.90
23156;DHT22;11746;50.876;4.246;2023-06-22T01:00:48;21.80;99.90
23156;DHT22;11746;50.876;4.246;2023-06-22T01:03:13;21.80;99.90
23156;DHT22;11746;50.876;4.246;2023-06-22T01:05:40;21.70;99.90
23156;DHT22;11746;50.876;4.246;2023-06-22T01:08:34;21.70;99.90
23156;DHT22;11746;50.876;4.246;2023-06-22T01:11:41;21.70;99.90
23156;DHT22;11746;50.876;4.246;2023-06-22T01:14:29;21.80;99.90
23156;DHT22;11746;50.876;4.246;2023-06-22T01:17:00;21.70;99.90
23156;DHT22;11746;50.876;4.246;2023-06-22T01:22:02;21.70;99.90
23156;DHT22;11746;50.876;4.246;2023-06-22T01:24:41;21.70;99.90
23156;DHT22;11746;50.876;4.246;2023-06-22T01:29:56;21.60;99.90
23156;DHT22;11746;50.876;4.246;2023-06-22T01:32:32;21.60;99.90
23156;DHT22;11746;50.876;4.246;2023-06-22T01:35:00;21.50;99.90
23156;DHT22;11746;50.876;4.246;2023-06-22T01:37:28;21.50;99.90
23156;DHT22;11746;50.876;4.246;2023-06-22T01:39:55;21.50;99.90
23156;DHT22;11746;50.876;4.246;2023-06-22T01:42:23;21.30;99.90
23156;DHT22;11746;50.876;4.246;2023-06-22T01:44:54;21.30;99.90
23156;DHT22;11746;50.876;4.246;2023-06-22T01:47:24;21.20;99.90
23156;DHT22;11746;50.876;4.246;2023-06-22T01:49:51;21.20;99.90
23156;DHT22;11746;50.876;4.246;2023-06-22T01:52:18;21.10;99.90
23156;DHT22;11746;50.876;4.246;2023-06-22T01:54:44;21.00;99.90
23156;DHT22;11746;50.876;4.246;2023-06-22T01:57:10;21.10;99.90
23156;DHT22;11746;50.876;4.246;2023-06-22T01:59:46;21.10;99.90
23156;DHT22;11746;50.876;4.246;2023-06-22T02:02:16;21.10;99.90
23156;DHT22;11746;50.876;4.246;2023-06-22T02:04:46;21.10;99.90
23156;DHT22;11746;50.876;4.246;2023-06-22T02:07:15;21.00;99.90
23156;DHT22;11746;50.876;4.246;2023-06-22T02:09:47;20.90;99.90
23156;DHT22;11746;50.876;4.246;2023-06-22T02:12:18;20.90;99.90
23156;DHT22;11746;50.876;4.246;2023-06-22T02:14:46;20.80;99.90
23156;DHT22;11746;50.876;4.246;2023-06-22T02:17:12;20.80;99.90
23156;DHT22;11746;50.876;4.246;2023-06-22T02:19:43;20.70;99.90
23156;DHT22;11746;50.876;4.246;2023-06-22T02:22:09;20.80;99.90
23156;DHT22;11746;50.876;4.246;2023-06-22T02:24:35;20.80;99.90
23156;DHT22;11746;50.876;4.246;2023-06-22T02:27:02;20.70;99.90
23156;DHT22;11746;50.876;4.246;2023-06-22T02:29:28;20.60;99.90
23156;DHT22;11746;50.876;4.246;2023-06-22T02:31:54;20.60;99.90
23156;DHT22;11746;50.876;4.246;2023-06-22T02:34:21;20.70;99.90
23156;DHT22;11746;50.876;4.246;2023-06-22T02:36:48;20.60;99.90
23156;DHT22;11746;50.876;4.246;2023-06-22T02:39:23;20.60;99.90
23156;DHT22;11746;50.876;4.246;2023-06-22T02:41:50;20.70;99.90
23156;DHT22;11746;50.876;4.246;2023-06-22T02:44:17;20.70;99.90
23156;DHT22;11746;50.876;4.246;2023-06-22T02:46:43;20.90;99.90
23156;DHT22;11746;50.876;4.246;2023-06-22T02:49:10;20.90;99.90
23156;DHT22;11746;50.876;4.246;2023-06-22T02:51:39;20.80;99.90
23156;DHT22;11746;50.876;4.246;2023-06-22T02:54:06;20.70;99.90
23156;DHT22;11746;50.876;4.246;2023-06-22T02:56:32;20.60;99.90
23156;DHT22;11746;50.876;4.246;2023-06-22T02:58:58;20.60;99.90
23156;DHT22;11746;50.876;4.246;2023-06-22T03:01:27;20.50;99.90
23156;DHT22;11746;50.876;4.246;2023-06-22T03:03:53;20.40;99.90
23156;DHT22;11746;50.876;4.246;2023-06-22T03:06:21;20.40;99.90
23156;DHT22;11746;50.876;4.246;2023-06-22T03:08:49;20.40;99.90
23156;DHT22;11746;50.876;4.246;2023-06-22T03:11:15;20.30;99.90
23156;DHT22;11746;50.876;4.246;2023-06-22T03:13:41;20.30;99.90
23156;DHT22;11746;50.876;4.246;2023-06-22T03:16:07;20.20;99.90
23156;DHT22;11746;50.876;4.246;2023-06-22T03:18:33;20.20;99.90
23156;DHT22;11746;50.876;4.246;2023-06-22T03:20:59;20.20;99.90
23156;DHT22;11746;50.876;4.246;2023-06-22T03:23:27;20.30;99.90
23156;DHT22;11746;50.876;4.246;2023-06-22T03:25:53;20.10;99.90
23156;DHT22;11746;50.876;4.246;2023-06-22T03:28:21;20.10;99.90
23156;DHT22;11746;50.876;4.246;2023-06-22T03:30:47;20.20;99.90
23156;DHT22;11746;50.876;4.246;2023-06-22T03:33:13;20.10;99.90
23156;DHT22;11746;50.876;4.246;2023-06-22T03:35:39;20.10;99.90
23156;DHT22;11746;50.876;4.246;2023-06-22T03:38:07;20.20;99.90
23156;DHT22;11746;50.876;4.246;2023-06-22T03:40:33;20.30;99.90
23156;DHT22;11746;50.876;4.246;2023-06-22T03:42:59;20.30;99.90
23156;DHT22;11746;50.876;4.246;2023-06-22T03:45:25;20.20;99.90
23156;DHT22;11746;50.876;4.246;2023-06-22T03:47:51;20.10;99.90
23156;DHT22;11746;50.876;4.246;2023-06-22T03:50:17;20.10;99.90
23156;DHT22;11746;50.876;4.246;2023-06-22T03:52:46;20.10;99.90
23156;DHT22;11746;50.876;4.246;2023-06-22T03:55:12;20.10;99.90
23156;DHT22;11746;50.876;4.246;2023-06-22T03:57:37;20.00;99.90
23156;DHT22;11746;50.876;4.246;2023-06-22T04:00:04;20.00;99.90
23156;DHT22;11746;50.876;4.246;2023-06-22T04:02:31;20.00;99.90
23156;DHT22;11746;50.876;4.246;2023-06-22T04:04:57;20.10;99.90
23156;DHT22;11746;50.876;4.246;2023-06-22T04:07:23;20.30;99.90
23156;DHT22;11746;50.876;4.246;2023-06-22T04:09:49;20.40;99.90
23156;DHT22;11746;50.876;4.246;2023-06-22T04:12:15;20.40;99.90
23156;DHT22;11746;50.876;4.246;2023-06-22T04:14:41;20.40;99.90
23156;DHT22;11746;50.876;4.246;2023-06-22T04:17:07;20.40;99.90
23156;DHT22;11746;50.876;4.246;2023-06-22T04:19:33;20.60;99.90
23156;DHT22;11746;50.876;4.246;2023-06-22T04:21:58;20.70;99.90
23156;DHT22;11746;50.876;4.246;2023-06-22T04:24:24;20.70;99.90
23156;DHT22;11746;50.876;4.246;2023-06-22T04:26:50;20.70;99.90
23156;DHT22;11746;50.876;4.246;2023-06-22T04:29:21;20.80;99.90
23156;DHT22;11746;50.876;4.246;2023-06-22T04:31:56;20.80;99.90
23156;DHT22;11746;50.876;4.246;2023-06-22T04:34:24;20.90;99.90
23156;DHT22;11746;50.876;4.246;2023-06-22T04:36:53;20.80;99.90
23156;DHT22;11746;50.876;4.246;2023-06-22T04:39:19;21.00;99.90
23156;DHT22;11746;50.876;4.246;2023-06-22T04:41:45;20.90;99.90
23156;DHT22;11746;50.876;4.246;2023-06-22T04:44:16;20.90;99.90
23156;DHT22;11746;50.876;4.246;2023-06-22T04:47:02;21.00;99.90
23156;DHT22;11746;50.876;4.246;2023-06-22T04:49:30;21.10;99.90
23156;DHT22;11746;50.876;4.246;2023-06-22T04:52:00;21.20;99.90
23156;DHT22;11746;50.876;4.246;2023-06-22T04:54:26;21.40;99.90
23156;DHT22;11746;50.876;4.246;2023-06-22T04:56:52;21.50;99.90
23156;DHT22;11746;50.876;4.246;2023-06-22T04:59:28;21.50;99.90
23156;DHT22;11746;50.876;4.246;2023-06-22T05:02:00;21.50;99.90
23156;DHT22;11746;50.876;4.246;2023-06-22T05:04:27;21.50;99.90
23156;DHT22;11746;50.876;4.246;2023-06-22T05:06:57;21.40;99.90
23156;DHT22;11746;50.876;4.246;2023-06-22T05:09:24;21.40;99.90
23156;DHT22;11746;50.876;4.246;2023-06-22T05:11:50;21.40;99.90
23156;DHT22;11746;50.876;4.246;2023-06-22T05:14:16;21.40;99.90
23156;DHT22;11746;50.876;4.246;2023-06-22T05:16:43;21.40;99.90
23156;DHT22;11746;50.876;4.246;2023-06-22T05:19:09;21.40;99.90
23156;DHT22;11746;50.876;4.246;2023-06-22T05:21:36;21.50;99.90
23156;DHT22;11746;50.876;4.246;2023-06-22T05:24:02;21.50;99.90
23156;DHT22;11746;50.876;4.246;2023-06-22T05:26:29;21.40;99.90
23156;DHT22;11746;50.876;4.246;2023-06-22T05:28:56;21.40;99.90
23156;DHT22;11746;50.876;4.246;2023-06-22T05:31:22;21.30;99.90
23156;DHT22;11746;50.876;4.246;2023-06-22T05:33:51;21.30;99.90
23156;DHT22;11746;50.876;4.246;2023-06-22T05:36:17;21.40;99.90
23156;DHT22;11746;50.876;4.246;2023-06-22T05:38:44;21.40;99.90
23156;DHT22;11746;50.876;4.246;2023-06-22T05:41:10;21.30;99.90
23156;DHT22;11746;50.876;4.246;2023-06-22T05:43:35;21.10;99.90
23156;DHT22;11746;50.876;4.246;2023-06-22T05:46:02;21.10;99.90
23156;DHT22;11746;50.876;4.246;2023-06-22T05:48:28;21.10;99.90
23156;DHT22;11746;50.876;4.246;2023-06-22T05:50:54;21.20;99.90
23156;DHT22;11746;50.876;4.246;2023-06-22T05:53:20;21.20;99.90
23156;DHT22;11746;50.876;4.246;2023-06-22T05:55:46;21.30;99.90
23156;DHT22;11746;50.876;4.246;2023-06-22T05:58:12;21.30;99.90
23156;DHT22;11746;50.876;4.246;2023-06-22T06:00:39;21.30;99.90
23156;DHT22;11746;50.876;4.246;2023-06-22T06:03:07;21.30;99.90
23156;DHT22;11746;50.876;4.246;2023-06-22T06:05:33;21.20;99.90
23156;DHT22;11746;50.876;4.246;2023-06-22T06:08:01;21.00;99.90
23156;DHT22;11746;50.876;4.246;2023-06-22T06:10:27;20.80;99.90
23156;DHT22;11746;50.876;4.246;2023-06-22T06:12:55;20.70;99.90
23156;DHT22;11746;50.876;4.246;2023-06-22T06:15:21;20.60;99.90
23156;DHT22;11746;50.876;4.246;2023-06-22T06:17:51;20.40;99.90
23156;DHT22;11746;50.876;4.246;2023-06-22T06:20:26;20.40;99.90
23156;DHT22;11746;50.876;4.246;2023-06-22T06:22:55;20.30;99.90
23156;DHT22;11746;50.876;4.246;2023-06-22T06:25:22;20.40;99.90
23156;DHT22;11746;50.876;4.246;2023-06-22T06:27:50;20.30;99.90
23156;DHT22;11746;50.876;4.246;2023-06-22T06:30:18;20.30;99.90
23156;DHT22;11746;50.876;4.246;2023-06-22T06:32:44;20.40;99.90
23156;DHT22;11746;50.876;4.246;2023-06-22T06:35:14;20.40;99.90
23156;DHT22;11746;50.876;4.246;2023-06-22T06:37:43;20.40;99.90
23156;DHT22;11746;50.876;4.246;2023-06-22T06:40:11;20.50;99.90
23156;DHT22;11746;50.876;4.246;2023-06-22T06:42:42;20.50;99.90
23156;DHT22;11746;50.876;4.246;2023-06-22T06:45:20;20.60;99.90
23156;DHT22;11746;50.876;4.246;2023-06-22T06:47:48;20.60;99.90
23156;DHT22;11746;50.876;4.246;2023-06-22T06:50:15;20.70;99.90
23156;DHT22;11746;50.876;4.246;2023-06-22T06:52:41;20.80;99.90
23156;DHT22;11746;50.876;4.246;2023-06-22T06:55:08;20.80;99.90
23156;DHT22;11746;50.876;4.246;2023-06-22T06:57:38;20.70;99.90
23156;DHT22;11746;50.876;4.246;2023-06-22T07:00:08;20.80;99.90
23156;DHT22;11746;50.876;4.246;2023-06-22T07:02:42;20.80;99.90
23156;DHT22;11746;50.876;4.246;2023-06-22T07:05:09;20.90;99.90
23156;DHT22;11746;50.876;4.246;2023-06-22T07:07:36;21.00;99.90
23156;DHT22;11746;50.876;4.246;2023-06-22T07:10:02;21.00;99.90
23156;DHT22;11746;50.876;4.246;2023-06-22T07:12:29;21.10;99.90
23156;DHT22;11746;50.876;4.246;2023-06-22T07:15:04;21.20;99.90
23156;DHT22;11746;50.876;4.246;2023-06-22T07:17:30;21.20;99.90
23156;DHT22;11746;50.876;4.246;2023-06-22T07:19:56;21.20;99.90
23156;DHT22;11746;50.876;4.246;2023-06-22T07:22:22;21.30;99.90
23156;DHT22;11746;50.876;4.246;2023-06-22T07:24:48;21.40;99.90
23156;DHT22;11746;50.876;4.246;2023-06-22T07:27:15;21.30;99.90
23156;DHT22;11746;50.876;4.246;2023-06-22T07:29:44;21.50;99.90
23156;DHT22;11746;50.876;4.246;2023-06-22T07:32:10;21.50;99.90
23156;DHT22;11746;50.876;4.246;2023-06-22T07:34:36;21.60;99.90
23156;DHT22;11746;50.876;4.246;2023-06-22T07:37:02;21.60;99.90
23156;DHT22;11746;50.876;4.246;2023-06-22T07:39:29;21.70;99.90
23156;DHT22;11746;50.876;4.246;2023-06-22T07:41:57;21.80;99.90
23156;DHT22;11746;50.876;4.246;2023-06-22T07:44:26;21.90;99.90
23156;DHT22;11746;50.876;4.246;2023-06-22T07:46:52;22.10;99.90
23156;DHT22;11746;50.876;4.246;2023-06-22T07:49:17;22.20;99.90
23156;DHT22;11746;50.876;4.246;2023-06-22T07:51:43;22.20;99.90
23156;DHT22;11746;50.876;4.246;2023-06-22T07:54:09;22.30;99.90
23156;DHT22;11746;50.876;4.246;2023-06-22T07:56:36;22.30;99.90
23156;DHT22;11746;50.876;4.246;2023-06-22T07:59:02;22.30;99.90
23156;DHT22;11746;50.876;4.246;2023-06-22T08:01:29;22.40;99.90
23156;DHT22;11746;50.876;4.246;2023-06-22T08:03:55;22.50;99.90
23156;DHT22;11746;50.876;4.246;2023-06-22T08:06:21;22.40;99.90
23156;DHT22;11746;50.876;4.246;2023-06-22T08:08:47;22.40;99.90
23156;DHT22;11746;50.876;4.246;2023-06-22T08:11:14;22.40;99.90
23156;DHT22;11746;50.876;4.246;2023-06-22T08:13:40;22.30;99.90
23156;DHT22;11746;50.876;4.246;2023-06-22T08:16:06;22.40;99.90
23156;DHT22;11746;50.876;4.246;2023-06-22T08:18:33;22.40;99.90
23156;DHT22;11746;50.876;4.246;2023-06-22T08:20:59;22.40;99.90
23156;DHT22;11746;50.876;4.246;2023-06-22T08:23:24;22.30;99.90
23156;DHT22;11746;50.876;4.246;2023-06-22T08:25:52;22.30;99.90
23156;DHT22;11746;50.876;4.246;2023-06-22T08:28:18;22.40;99.90
23156;DHT22;11746;50.876;4.246;2023-06-22T08:30:44;22.40;99.90
23156;DHT22;11746;50.876;4.246;2023-06-22T08:33:10;22.40;99.90
23156;DHT22;11746;50.876;4.246;2023-06-22T08:35:36;22.30;99.90
23156;DHT22;11746;50.876;4.246;2023-06-22T08:38:02;22.30;99.90
23156;DHT22;11746;50.876;4.246;2023-06-22T08:40:28;22.30;99.90
23156;DHT22;11746;50.876;4.246;2023-06-22T08:42:55;22.30;99.90
23156;DHT22;11746;50.876;4.246;2023-06-22T08:45:21;22.50;99.90
23156;DHT22;11746;50.876;4.246;2023-06-22T08:47:47;22.30;99.90
23156;DHT22;11746;50.876;4.246;2023-06-22T08:50:13;22.30;99.90
23156;DHT22;11746;50.876;4.246;2023-06-22T08:52:39;22.20;99.90
23156;DHT22;11746;50.876;4.246;2023-06-22T08:55:09;22.10;99.90
23156;DHT22;11746;50.876;4.246;2023-06-22T08:57:35;22.10;99.90
23156;DHT22;11746;50.876;4.246;2023-06-22T09:00:06;22.00;99.90
23156;DHT22;11746;50.876;4.246;2023-06-22T09:02:40;21.90;99.90
23156;DHT22;11746;50.876;4.246;2023-06-22T09:05:06;21.90;99.90
23156;DHT22;11746;50.876;4.246;2023-06-22T09:07:32;21.90;99.90
23156;DHT22;11746;50.876;4.246;2023-06-22T09:10:00;21.80;99.90
23156;DHT22;11746;50.876;4.246;2023-06-22T09:12:26;21.80;99.90
23156;DHT22;11746;50.876;4.246;2023-06-22T09:14:53;21.70;99.90
23156;DHT22;11746;50.876;4.246;2023-06-22T09:17:19;21.70;99.90
23156;DHT22;11746;50.876;4.246;2023-06-22T09:19:45;21.60;99.90
23156;DHT22;11746;50.876;4.246;2023-06-22T09:22:11;21.60;99.90
23156;DHT22;11746;50.876;4.246;2023-06-22T09:24:37;21.80;99.90
23156;DHT22;11746;50.876;4.246;2023-06-22T09:27:03;21.80;99.90
23156;DHT22;11746;50.876;4.246;2023-06-22T09:29:29;21.70;99.90
23156;DHT22;11746;50.876;4.246;2023-06-22T09:31:59;21.70;99.90
23156;DHT22;11746;50.876;4.246;2023-06-22T09:34:25;21.60;99.90
23156;DHT22;11746;50.876;4.246;2023-06-22T09:36:51;21.60;99.90
23156;DHT22;11746;50.876;4.246;2023-06-22T09:39:18;21.70;99.90
23156;DHT22;11746;50.876;4.246;2023-06-22T09:41:44;21.60;99.90
23156;DHT22;11746;50.876;4.246;2023-06-22T09:44:10;21.50;99.90
23156;DHT22;11746;50.876;4.246;2023-06-22T09:46:36;21.40;99.90
23156;DHT22;11746;50.876;4.246;2023-06-22T09:49:02;21.50;99.90
23156;DHT22;11746;50.876;4.246;2023-06-22T09:51:28;21.40;99.90
23156;DHT22;11746;50.876;4.246;2023-06-22T09:53:54;21.50;99.90
23156;DHT22;11746;50.876;4.246;2023-06-22T09:56:22;21.50;99.90
23156;DHT22;11746;50.876;4.246;2023-06-22T09:58:48;21.40;99.90
23156;DHT22;11746;50.876;4.246;2023-06-22T10:01:15;21.40;99.90
23156;DHT22;11746;50.876;4.246;2023-06-22T10:03:41;21.50;99.90
23156;DHT22;11746;50.876;4.246;2023-06-22T10:06:08;21.50;99.90
23156;DHT22;11746;50.876;4.246;2023-06-22T10:08:35;21.40;99.90
23156;DHT22;11746;50.876;4.246;2023-06-22T10:11:01;21.10;99.90
23156;DHT22;11746;50.876;4.246;2023-06-22T10:13:27;20.80;99.90
23156;DHT22;11746;50.876;4.246;2023-06-22T10:15:53;20.80;99.90
23156;DHT22;11746;50.876;4.246;2023-06-22T10:18:18;20.70;99.90
23156;DHT22;11746;50.876;4.246;2023-06-22T10:20:49;20.60;99.90
23156;DHT22;11746;50.876;4.246;2023-06-22T10:23:18;20.60;99.90
23156;DHT22;11746;50.876;4.246;2023-06-22T10:25:44;20.70;99.90
23156;DHT22;11746;50.876;4.246;2023-06-22T10:28:11;20.60;99.90
23156;DHT22;11746;50.876;4.246;2023-06-22T10:30:41;20.40;99.90
23156;DHT22;11746;50.876;4.246;2023-06-22T10:33:11;20.30;99.90
23156;DHT22;11746;50.876;4.246;2023-06-22T10:35:37;20.10;99.90
23156;DHT22;11746;50.876;4.246;2023-06-22T10:38:04;19.90;99.90
23156;DHT22;11746;50.876;4.246;2023-06-22T10:40:30;19.80;99.90
23156;DHT22;11746;50.876;4.246;2023-06-22T10:42:56;19.70;99.90
23156;DHT22;11746;50.876;4.246;2023-06-22T10:45:22;19.50;99.90
23156;DHT22;11746;50.876;4.246;2023-06-22T10:47:49;19.30;99.90
23156;DHT22;11746;50.876;4.246;2023-06-22T10:50:15;19.20;99.90
23156;DHT22;11746;50.876;4.246;2023-06-22T10:52:41;19.20;99.90
23156;DHT22;11746;50.876;4.246;2023-06-22T10:55:08;19.00;99.90
23156;DHT22;11746;50.876;4.246;2023-06-22T10:57:34;19.00;99.90
23156;DHT22;11746;50.876;4.246;2023-06-22T11:00:00;18.80;99.90
23156;DHT22;11746;50.876;4.246;2023-06-22T11:02:26;18.80;99.90
23156;DHT22;11746;50.876;4.246;2023-06-22T11:04:54;18.80;99.90
23156;DHT22;11746;50.876;4.246;2023-06-22T11:07:19;18.80;99.90
23156;DHT22;11746;50.876;4.246;2023-06-22T11:09:45;18.90;99.90
23156;DHT22;11746;50.876;4.246;2023-06-22T11:12:11;19.00;99.90
23156;DHT22;11746;50.876;4.246;2023-06-22T11:14:38;19.00;99.90
23156;DHT22;11746;50.876;4.246;2023-06-22T11:17:05;18.90;99.90
23156;DHT22;11746;50.876;4.246;2023-06-22T11:19:30;18.90;99.90
23156;DHT22;11746;50.876;4.246;2023-06-22T11:21:56;18.90;99.90
23156;DHT22;11746;50.876;4.246;2023-06-22T11:24:22;19.00;99.90
23156;DHT22;11746;50.876;4.246;2023-06-22T11:26:48;19.10;99.90
23156;DHT22;11746;50.876;4.246;2023-06-22T11:29:14;19.10;99.90
23156;DHT22;11746;50.876;4.246;2023-06-22T11:31:40;19.30;99.90
23156;DHT22;11746;50.876;4.246;2023-06-22T11:34:08;19.20;99.90
23156;DHT22;11746;50.876;4.246;2023-06-22T11:36:34;19.10;99.90
23156;DHT22;11746;50.876;4.246;2023-06-22T11:39:01;19.10;99.90
23156;DHT22;11746;50.876;4.246;2023-06-22T11:41:27;19.20;99.90
23156;DHT22;11746;50.876;4.246;2023-06-22T11:43:53;19.20;99.90
23156;DHT22;11746;50.876;4.246;2023-06-22T11:46:19;19.40;99.90
23156;DHT22;11746;50.876;4.246;2023-06-22T11:48:45;19.30;99.90
23156;DHT22;11746;50.876;4.246;2023-06-22T11:51:11;19.30;99.90
23156;DHT22;11746;50.876;4.246;2023-06-22T11:53:37;19.50;99.90
23156;DHT22;11746;50.876;4.246;2023-06-22T11:56:03;19.50;99.90
23156;DHT22;11746;50.876;4.246;2023-06-22T11:58:29;19.60;99.90
23156;DHT22;11746;50.876;4.246;2023-06-22T12:00:55;19.60;99.90
23156;DHT22;11746;50.876;4.246;2023-06-22T12:03:20;19.70;99.90
23156;DHT22;11746;50.876;4.246;2023-06-22T12:05:50;19.70;99.90
23156;DHT22;11746;50.876;4.246;2023-06-22T12:08:17;19.70;99.90
23156;DHT22;11746;50.876;4.246;2023-06-22T12:10:44;19.80;99.90
23156;DHT22;11746;50.876;4.246;2023-06-22T12:13:10;19.90;99.90
23156;DHT22;11746;50.876;4.246;2023-06-22T12:15:36;20.00;99.90
23156;DHT22;11746;50.876;4.246;2023-06-22T12:18:02;20.00;99.90
23156;DHT22;11746;50.876;4.246;2023-06-22T12:20:28;20.10;99.90
23156;DHT22;11746;50.876;4.246;2023-06-22T12:22:54;20.10;99.90
23156;DHT22;11746;50.876;4.246;2023-06-22T12:25:22;20.10;99.90
23156;DHT22;11746;50.876;4.246;2023-06-22T12:27:48;19.90;99.90
23156;DHT22;11746;50.876;4.246;2023-06-22T12:30:16;19.80;99.90
23156;DHT22;11746;50.876;4.246;2023-06-22T12:32:42;19.80;99.90
23156;DHT22;11746;50.876;4.246;2023-06-22T12:35:08;19.80;99.90
23156;DHT22;11746;50.876;4.246;2023-06-22T12:37:40;19.80;99.90
23156;DHT22;11746;50.876;4.246;2023-06-22T12:40:07;19.80;99.90
23156;DHT22;11746;50.876;4.246;2023-06-22T12:42:33;19.80;99.90
23156;DHT22;11746;50.876;4.246;2023-06-22T12:44:59;19.80;99.90
23156;DHT22;11746;50.876;4.246;2023-06-22T12:47:25;19.80;99.90
23156;DHT22;11746;50.876;4.246;2023-06-22T12:49:51;19.80;99.90
23156;DHT22;11746;50.876;4.246;2023-06-22T12:52:16;19.80;99.90
23156;DHT22;11746;50.876;4.246;2023-06-22T12:54:42;19.60;99.90
23156;DHT22;11746;50.876;4.246;2023-06-22T12:57:08;19.60;99.90
23156;DHT22;11746;50.876;4.246;2023-06-22T12:59:34;19.50;99.90
23156;DHT22;11746;50.876;4.246;2023-06-22T13:02:00;19.40;99.90
23156;DHT22;11746;50.876;4.246;2023-06-22T13:04:26;19.40;99.90
23156;DHT22;11746;50.876;4.246;2023-06-22T13:06:52;19.20;99.90
23156;DHT22;11746;50.876;4.246;2023-06-22T13:09:18;19.00;99.90
23156;DHT22;11746;50.876;4.246;2023-06-22T13:11:45;19.00;99.90
23156;DHT22;11746;50.876;4.246;2023-06-22T13:14:11;19.00;99.90
23156;DHT22;11746;50.876;4.246;2023-06-22T13:16:37;18.90;99.90
23156;DHT22;11746;50.876;4.246;2023-06-22T13:19:03;18.80;99.90
23156;DHT22;11746;50.876;4.246;2023-06-22T13:21:29;18.80;99.90
23156;DHT22;11746;50.876;4.246;2023-06-22T13:23:55;18.90;99.90
23156;DHT22;11746;50.876;4.246;2023-06-22T13:26:21;18.80;99.90
23156;DHT22;11746;50.876;4.246;2023-06-22T13:28:48;18.80;99.90
23156;DHT22;11746;50.876;4.246;2023-06-22T13:31:14;18.70;99.90
23156;DHT22;11746;50.876;4.246;2023-06-22T13:33:40;18.70;99.90
23156;DHT22;11746;50.876;4.246;2023-06-22T13:36:11;18.80;99.90
23156;DHT22;11746;50.876;4.246;2023-06-22T13:38:37;18.90;99.90
23156;DHT22;11746;50.876;4.246;2023-06-22T13:41:04;18.90;99.90
23156;DHT22;11746;50.876;4.246;2023-06-22T13:43:30;19.00;99.90
23156;DHT22;11746;50.876;4.246;2023-06-22T13:45:57;19.00;99.90
23156;DHT22;11746;50.876;4.246;2023-06-22T13:48:23;19.10;99.90
23156;DHT22;11746;50.876;4.246;2023-06-22T13:50:52;19.10;99.90
23156;DHT22;11746;50.876;4.246;2023-06-22T13:53:18;19.00;99.90
23156;DHT22;11746;50.876;4.246;2023-06-22T13:55:44;19.10;99.90
23156;DHT22;11746;50.876;4.246;2023-06-22T13:58:10;19.10;99.90
23156;DHT22;11746;50.876;4.246;2023-06-22T14:00:35;19.20;99.90
23156;DHT22;11746;50.876;4.246;2023-06-22T14:03:02;19.20;99.90
23156;DHT22;11746;50.876;4.246;2023-06-22T14:05:28;19.30;99.90
23156;DHT22;11746;50.876;4.246;2023-06-22T14:07:54;19.30;99.90
23156;DHT22;11746;50.876;4.246;2023-06-22T14:10:20;19.20;99.90
23156;DHT22;11746;50.876;4.246;2023-06-22T14:12:46;19.10;99.90
23156;DHT22;11746;50.876;4.246;2023-06-22T14:15:12;19.00;99.90
23156;DHT22;11746;50.876;4.246;2023-06-22T14:17:37;19.00;99.90
23156;DHT22;11746;50.876;4.246;2023-06-22T14:20:04;19.00;99.90
23156;DHT22;11746;50.876;4.246;2023-06-22T14:22:31;19.00;99.90
23156;DHT22;11746;50.876;4.246;2023-06-22T14:24:57;19.10;99.90
23156;DHT22;11746;50.876;4.246;2023-06-22T14:27:24;19.20;99.90
23156;DHT22;11746;50.876;4.246;2023-06-22T14:29:50;19.30;99.90
23156;DHT22;11746;50.876;4.246;2023-06-22T14:32:16;19.30;99.90
23156;DHT22;11746;50.876;4.246;2023-06-22T14:34:41;19.30;99.90
23156;DHT22;11746;50.876;4.246;2023-06-22T14:37:08;19.30;99.90
23156;DHT22;11746;50.876;4.246;2023-06-22T14:39:40;19.20;99.90
23156;DHT22;11746;50.876;4.246;2023-06-22T14:42:10;19.30;99.90
23156;DHT22;11746;50.876;4.246;2023-06-22T14:44:36;19.20;99.90
23156;DHT22;11746;50.876;4.246;2023-06-22T14:47:02;19.30;99.90
23156;DHT22;11746;50.876;4.246;2023-06-22T14:49:27;19.20;99.90
23156;DHT22;11746;50.876;4.246;2023-06-22T14:51:53;19.20;99.90
23156;DHT22;11746;50.876;4.246;2023-06-22T14:54:20;19.30;99.90
23156;DHT22;11746;50.876;4.246;2023-06-22T14:56:46;19.30;99.90
23156;DHT22;11746;50.876;4.246;2023-06-22T14:59:12;19.40;99.90
23156;DHT22;11746;50.876;4.246;2023-06-22T15:01:38;19.40;99.90
23156;DHT22;11746;50.876;4.246;2023-06-22T15:04:04;19.40;99.90
23156;DHT22;11746;50.876;4.246;2023-06-22T15:06:30;19.40;99.90
23156;DHT22;11746;50.876;4.246;2023-06-22T15:08:56;19.50;99.90
23156;DHT22;11746;50.876;4.246;2023-06-22T15:11:22;19.60;99.90
23156;DHT22;11746;50.876;4.246;2023-06-22T15:13:48;19.60;99.90
23156;DHT22;11746;50.876;4.246;2023-06-22T15:16:14;19.60;99.90
23156;DHT22;11746;50.876;4.246;2023-06-22T15:18:40;19.70;99.90
23156;DHT22;11746;50.876;4.246;2023-06-22T15:21:07;19.70;99.90
23156;DHT22;11746;50.876;4.246;2023-06-22T15:23:33;19.80;99.90
23156;DHT22;11746;50.876;4.246;2023-06-22T15:26:02;19.80;99.90
23156;DHT22;11746;50.876;4.246;2023-06-22T15:28:29;19.90;99.90
23156;DHT22;11746;50.876;4.246;2023-06-22T15:30:55;19.90;99.90
23156;DHT22;11746;50.876;4.246;2023-06-22T15:33:21;20.00;99.90
23156;DHT22;11746;50.876;4.246;2023-06-22T15:35:47;20.00;99.90